sensor_id;sensor_type;location;lat;lon;timestamp;P1;durP1;ratioP1;P2;durP2;ratioP2
47103;SDS011;32853;52.164;5.400;2023-07-31T00:02:34;0.73;;;0.50;;
47103;SDS011;32853;52.164;5.400;2023-07-31T00:05:01;2.20;;;0.57;;
47103;SDS011;32853;52.164;5.400;2023-07-31T00:07:26;1.15;;;0.50;;
47103;SDS011;32853;52.164;5.400;2023-07-31T00:09:55;1.73;;;0.50;;
47103;SDS011;32853;52.164;5.400;2023-07-31T00:12:27;0.75;;;0.35;;
47103;SDS011;32853;52.164;5.400;2023-07-31T00:14:54;3.77;;;0.40;;
47103;SDS011;32853;52.164;5.400;2023-07-31T00:17:21;2.55;;;0.55;;
47103;SDS011;32853;52.164;5.400;2023-07-31T00:19:46;6.90;;;0.60;;
47103;SDS011;32853;52.164;5.400;2023-07-31T00:22:14;1.98;;;0.40;;
47103;SDS011;32853;52.164;5.400;2023-07-31T00:24:39;2.78;;;0.90;;
47103;SDS011;32853;52.164;5.400;2023-07-31T00:27:04;2.75;;;0.60;;
47103;SDS011;32853;52.164;5.400;2023-07-31T00:29:34;1.70;;;0.90;;
47103;SDS011;32853;52.164;5.400;2023-07-31T00:31:59;2.47;;;0.60;;
47103;SDS011;32853;52.164;5.400;2023-07-31T00:34:27;2.88;;;0.80;;
47103;SDS011;32853;52.164;5.400;2023-07-31T00:36:52;1.58;;;0.60;;
47103;SDS011;32853;52.164;5.400;2023-07-31T00:39:18;3.97;;;1.05;;
47103;SDS011;32853;52.164;5.400;2023-07-31T00:41:52;5.20;;;0.88;;
47103;SDS011;32853;52.164;5.400;2023-07-31T00:44:26;3.53;;;1.02;;
47103;SDS011;32853;52.164;5.400;2023-07-31T00:46:53;7.53;;;1.25;;
47103;SDS011;32853;52.164;5.400;2023-07-31T00:49:20;7.60;;;1.33;;
47103;SDS011;32853;52.164;5.400;2023-07-31T00:51:46;5.22;;;1.30;;
47103;SDS011;32853;52.164;5.400;2023-07-31T00:54:11;11.90;;;2.78;;
47103;SDS011;32853;52.164;5.400;2023-07-31T00:56:36;9.75;;;1.90;;
47103;SDS011;32853;52.164;5.400;2023-07-31T00:59:02;13.07;;;2.08;;
47103;SDS011;32853;52.164;5.400;2023-07-31T01:01:34;17.80;;;2.22;;
47103;SDS011;32853;52.164;5.400;2023-07-31T01:03:59;9.27;;;2.47;;
47103;SDS011;32853;52.164;5.400;2023-07-31T01:06:30;6.30;;;2.38;;
47103;SDS011;32853;52.164;5.400;2023-07-31T01:09:03;9.70;;;3.17;;
47103;SDS011;32853;52.164;5.400;2023-07-31T01:11:43;20.80;;;4.45;;
47103;SDS011;32853;52.164;5.400;2023-07-31T01:14:19;10.00;;;2.70;;
47103;SDS011;32853;52.164;5.400;2023-07-31T01:16:45;10.73;;;3.53;;
47103;SDS011;32853;52.164;5.400;2023-07-31T01:19:10;13.98;;;3.10;;
47103;SDS011;32853;52.164;5.400;2023-07-31T01:21:48;7.13;;;2.35;;
47103;SDS011;32853;52.164;5.400;2023-07-31T01:32:02;5.10;;;1.30;;
47103;SDS011;32853;52.164;5.400;2023-07-31T01:34:29;7.95;;;1.35;;
47103;SDS011;32853;52.164;5.400;2023-07-31T01:36:57;4.72;;;1.40;;
47103;SDS011;32853;52.164;5.400;2023-07-31T01:39:23;3.00;;;1.35;;
47103;SDS011;32853;52.164;5.400;2023-07-31T01:41:49;5.00;;;0.90;;
47103;SDS011;32853;52.164;5.400;2023-07-31T01:44:14;3.00;;;1.02;;
47103;SDS011;32853;52.164;5.400;2023-07-31T01:46:39;5.28;;;0.98;;
47103;SDS011;32853;52.164;5.400;2023-07-31T01:49:05;3.83;;;1.08;;
47103;SDS011;32853;52.164;5.400;2023-07-31T01:51:31;4.30;;;1.10;;
47103;SDS011;32853;52.164;5.400;2023-07-31T01:53:59;3.97;;;1.20;;
47103;SDS011;32853;52.164;5.400;2023-07-31T01:56:25;9.15;;;1.50;;
47103;SDS011;32853;52.164;5.400;2023-07-31T01:58:50;8.90;;;1.65;;
47103;SDS011;32853;52.164;5.400;2023-07-31T02:01:15;6.80;;;2.55;;
47103;SDS011;32853;52.164;5.400;2023-07-31T02:03:40;11.82;;;2.47;;
47103;SDS011;32853;52.164;5.400;2023-07-31T02:06:07;26.85;;;4.82;;
47103;SDS011;32853;52.164;5.400;2023-07-31T02:08:32;9.07;;;2.72;;
47103;SDS011;32853;52.164;5.400;2023-07-31T02:10:58;7.85;;;3.13;;
47103;SDS011;32853;52.164;5.400;2023-07-31T02:13:23;16.48;;;4.18;;
47103;SDS011;32853;52.164;5.400;2023-07-31T02:15:48;16.02;;;3.63;;
47103;SDS011;32853;52.164;5.400;2023-07-31T02:18:16;16.05;;;3.22;;
47103;SDS011;32853;52.164;5.400;2023-07-31T02:20:42;25.00;;;3.97;;
47103;SDS011;32853;52.164;5.400;2023-07-31T02:23:07;24.48;;;4.90;;
47103;SDS011;32853;52.164;5.400;2023-07-31T02:25:35;20.20;;;3.47;;
47103;SDS011;32853;52.164;5.400;2023-07-31T02:28:01;11.75;;;4.95;;
47103;SDS011;32853;52.164;5.400;2023-07-31T02:30:26;18.60;;;4.10;;
47103;SDS011;32853;52.164;5.400;2023-07-31T02:32:51;23.02;;;3.95;;
47103;SDS011;32853;52.164;5.400;2023-07-31T02:35:17;16.75;;;3.70;;
47103;SDS011;32853;52.164;5.400;2023-07-31T02:37:43;17.00;;;4.88;;
47103;SDS011;32853;52.164;5.400;2023-07-31T02:40:09;20.23;;;4.68;;
47103;SDS011;32853;52.164;5.400;2023-07-31T02:42:34;20.40;;;2.83;;
47103;SDS011;32853;52.164;5.400;2023-07-31T02:44:59;22.63;;;2.85;;
47103;SDS011;32853;52.164;5.400;2023-07-31T02:47:27;23.15;;;4.32;;
47103;SDS011;32853;52.164;5.400;2023-07-31T02:49:54;19.48;;;3.85;;
47103;SDS011;32853;52.164;5.400;2023-07-31T02:52:21;12.77;;;4.65;;
47103;SDS011;32853;52.164;5.400;2023-07-31T02:54:46;19.98;;;3.80;;
47103;SDS011;32853;52.164;5.400;2023-07-31T02:57:11;17.05;;;3.90;;
47103;SDS011;32853;52.164;5.400;2023-07-31T02:59:37;17.67;;;3.25;;
47103;SDS011;32853;52.164;5.400;2023-07-31T03:02:02;17.42;;;4.40;;
47103;SDS011;32853;52.164;5.400;2023-07-31T03:04:36;14.95;;;3.50;;
47103;SDS011;32853;52.164;5.400;2023-07-31T03:07:01;24.45;;;3.65;;
47103;SDS011;32853;52.164;5.400;2023-07-31T03:09:34;20.23;;;4.95;;
47103;SDS011;32853;52.164;5.400;2023-07-31T03:14:33;15.45;;;3.92;;
47103;SDS011;32853;52.164;5.400;2023-07-31T03:16:59;21.55;;;6.03;;
47103;SDS011;32853;52.164;5.400;2023-07-31T03:19:24;25.25;;;4.68;;
47103;SDS011;32853;52.164;5.400;2023-07-31T03:21:50;23.42;;;4.63;;
47103;SDS011;32853;52.164;5.400;2023-07-31T03:24:16;23.92;;;5.60;;
47103;SDS011;32853;52.164;5.400;2023-07-31T03:26:41;17.08;;;4.13;;
47103;SDS011;32853;52.164;5.400;2023-07-31T03:29:16;11.93;;;3.28;;
47103;SDS011;32853;52.164;5.400;2023-07-31T03:31:41;16.02;;;3.85;;
47103;SDS011;32853;52.164;5.400;2023-07-31T03:34:06;27.45;;;3.83;;
47103;SDS011;32853;52.164;5.400;2023-07-31T03:36:36;32.13;;;6.45;;
47103;SDS011;32853;52.164;5.400;2023-07-31T03:39:01;32.10;;;5.38;;
47103;SDS011;32853;52.164;5.400;2023-07-31T03:41:27;33.92;;;4.82;;
47103;SDS011;32853;52.164;5.400;2023-07-31T03:43:52;25.58;;;5.05;;
47103;SDS011;32853;52.164;5.400;2023-07-31T03:51:16;27.27;;;6.15;;
47103;SDS011;32853;52.164;5.400;2023-07-31T03:53:43;23.83;;;4.57;;
47103;SDS011;32853;52.164;5.400;2023-07-31T03:56:18;19.10;;;4.45;;
47103;SDS011;32853;52.164;5.400;2023-07-31T04:01:21;21.05;;;5.60;;
47103;SDS011;32853;52.164;5.400;2023-07-31T04:03:49;21.98;;;4.93;;
47103;SDS011;32853;52.164;5.400;2023-07-31T04:06:17;16.80;;;4.22;;
47103;SDS011;32853;52.164;5.400;2023-07-31T04:08:44;16.73;;;4.50;;
47103;SDS011;32853;52.164;5.400;2023-07-31T04:11:12;22.15;;;4.32;;
47103;SDS011;32853;52.164;5.400;2023-07-31T04:16:11;13.40;;;3.08;;
47103;SDS011;32853;52.164;5.400;2023-07-31T04:18:45;26.17;;;5.53;;
47103;SDS011;32853;52.164;5.400;2023-07-31T04:23:39;14.95;;;5.35;;
47103;SDS011;32853;52.164;5.400;2023-07-31T04:26:04;22.15;;;5.78;;
47103;SDS011;32853;52.164;5.400;2023-07-31T04:28:30;15.13;;;3.92;;
47103;SDS011;32853;52.164;5.400;2023-07-31T04:30:56;20.35;;;5.75;;
47103;SDS011;32853;52.164;5.400;2023-07-31T04:33:22;11.45;;;4.13;;
47103;SDS011;32853;52.164;5.400;2023-07-31T04:35:51;30.83;;;4.50;;
47103;SDS011;32853;52.164;5.400;2023-07-31T04:38:21;20.00;;;4.90;;
47103;SDS011;32853;52.164;5.400;2023-07-31T04:40:47;13.13;;;4.78;;
47103;SDS011;32853;52.164;5.400;2023-07-31T04:43:28;20.30;;;4.75;;
47103;SDS011;32853;52.164;5.400;2023-07-31T04:45:54;21.60;;;7.73;;
47103;SDS011;32853;52.164;5.400;2023-07-31T04:48:19;10.93;;;3.33;;
47103;SDS011;32853;52.164;5.400;2023-07-31T04:50:44;15.50;;;4.60;;
47103;SDS011;32853;52.164;5.400;2023-07-31T04:53:11;18.38;;;4.00;;
47103;SDS011;32853;52.164;5.400;2023-07-31T04:55:36;24.48;;;4.57;;
47103;SDS011;32853;52.164;5.400;2023-07-31T04:58:03;27.25;;;4.00;;
47103;SDS011;32853;52.164;5.400;2023-07-31T05:02:56;11.00;;;4.75;;
47103;SDS011;32853;52.164;5.400;2023-07-31T05:07:55;15.10;;;3.92;;
47103;SDS011;32853;52.164;5.400;2023-07-31T05:12:58;13.73;;;3.15;;
47103;SDS011;32853;52.164;5.400;2023-07-31T05:15:24;8.45;;;2.35;;
47103;SDS011;32853;52.164;5.400;2023-07-31T05:18:04;14.90;;;4.20;;
47103;SDS011;32853;52.164;5.400;2023-07-31T05:20:29;9.18;;;3.15;;
47103;SDS011;32853;52.164;5.400;2023-07-31T05:22:56;13.25;;;2.60;;
47103;SDS011;32853;52.164;5.400;2023-07-31T05:27:58;9.52;;;3.05;;
47103;SDS011;32853;52.164;5.400;2023-07-31T05:30:29;10.40;;;3.03;;
47103;SDS011;32853;52.164;5.400;2023-07-31T05:33:11;22.50;;;7.07;;
47103;SDS011;32853;52.164;5.400;2023-07-31T05:35:36;15.55;;;3.85;;
47103;SDS011;32853;52.164;5.400;2023-07-31T05:38:05;9.52;;;2.55;;
47103;SDS011;32853;52.164;5.400;2023-07-31T05:40:32;16.20;;;3.45;;
47103;SDS011;32853;52.164;5.400;2023-07-31T05:42:58;5.10;;;1.92;;
47103;SDS011;32853;52.164;5.400;2023-07-31T05:45:28;7.55;;;2.13;;
47103;SDS011;32853;52.164;5.400;2023-07-31T05:47:54;12.20;;;2.40;;
47103;SDS011;32853;52.164;5.400;2023-07-31T05:53:09;4.95;;;1.77;;
47103;SDS011;32853;52.164;5.400;2023-07-31T05:55:35;5.88;;;1.92;;
47103;SDS011;32853;52.164;5.400;2023-07-31T05:58:00;8.35;;;1.58;;
47103;SDS011;32853;52.164;5.400;2023-07-31T06:00:26;5.03;;;2.03;;
47103;SDS011;32853;52.164;5.400;2023-07-31T06:02:52;12.00;;;2.00;;
47103;SDS011;32853;52.164;5.400;2023-07-31T06:05:17;6.68;;;2.33;;
47103;SDS011;32853;52.164;5.400;2023-07-31T06:07:43;4.95;;;2.17;;
47103;SDS011;32853;52.164;5.400;2023-07-31T06:10:08;5.60;;;2.22;;
47103;SDS011;32853;52.164;5.400;2023-07-31T06:12:35;6.97;;;2.67;;
47103;SDS011;32853;52.164;5.400;2023-07-31T06:15:04;8.25;;;3.42;;
47103;SDS011;32853;52.164;5.400;2023-07-31T06:17:30;3.78;;;1.75;;
47103;SDS011;32853;52.164;5.400;2023-07-31T06:19:56;5.47;;;2.25;;
47103;SDS011;32853;52.164;5.400;2023-07-31T06:22:23;8.10;;;3.03;;
47103;SDS011;32853;52.164;5.400;2023-07-31T06:24:59;7.47;;;2.55;;
47103;SDS011;32853;52.164;5.400;2023-07-31T06:27:24;11.52;;;2.30;;
47103;SDS011;32853;52.164;5.400;2023-07-31T06:29:56;9.23;;;2.85;;
47103;SDS011;32853;52.164;5.400;2023-07-31T06:32:21;9.67;;;2.27;;
47103;SDS011;32853;52.164;5.400;2023-07-31T06:34:47;10.45;;;2.63;;
47103;SDS011;32853;52.164;5.400;2023-07-31T06:37:12;6.50;;;2.65;;
47103;SDS011;32853;52.164;5.400;2023-07-31T06:42:09;8.88;;;2.85;;
47103;SDS011;32853;52.164;5.400;2023-07-31T06:44:35;5.80;;;2.40;;
47103;SDS011;32853;52.164;5.400;2023-07-31T06:47:00;5.63;;;1.85;;
47103;SDS011;32853;52.164;5.400;2023-07-31T06:49:26;9.13;;;2.78;;
47103;SDS011;32853;52.164;5.400;2023-07-31T06:51:51;5.88;;;2.20;;
47103;SDS011;32853;52.164;5.400;2023-07-31T06:54:24;5.30;;;2.00;;
47103;SDS011;32853;52.164;5.400;2023-07-31T06:56:50;3.78;;;1.20;;
47103;SDS011;32853;52.164;5.400;2023-07-31T06:59:15;5.35;;;1.90;;
47103;SDS011;32853;52.164;5.400;2023-07-31T07:01:49;8.52;;;2.05;;
47103;SDS011;32853;52.164;5.400;2023-07-31T07:04:16;3.42;;;1.55;;
47103;SDS011;32853;52.164;5.400;2023-07-31T07:06:41;2.28;;;1.23;;
47103;SDS011;32853;52.164;5.400;2023-07-31T07:09:07;3.15;;;1.60;;
47103;SDS011;32853;52.164;5.400;2023-07-31T07:11:37;4.90;;;1.77;;
47103;SDS011;32853;52.164;5.400;2023-07-31T07:14:04;5.10;;;1.83;;
47103;SDS011;32853;52.164;5.400;2023-07-31T07:16:34;4.72;;;1.10;;
47103;SDS011;32853;52.164;5.400;2023-07-31T07:19:00;6.38;;;2.10;;
47103;SDS011;32853;52.164;5.400;2023-07-31T07:21:25;3.22;;;1.27;;
47103;SDS011;32853;52.164;5.400;2023-07-31T07:23:51;4.25;;;1.50;;
47103;SDS011;32853;52.164;5.400;2023-07-31T07:26:19;3.85;;;1.50;;
47103;SDS011;32853;52.164;5.400;2023-07-31T07:28:45;3.80;;;1.45;;
47103;SDS011;32853;52.164;5.400;2023-07-31T07:31:11;4.18;;;1.20;;
47103;SDS011;32853;52.164;5.400;2023-07-31T07:33:36;3.75;;;1.35;;
47103;SDS011;32853;52.164;5.400;2023-07-31T07:36:02;3.92;;;1.10;;
47103;SDS011;32853;52.164;5.400;2023-07-31T07:38:36;3.30;;;1.63;;
47103;SDS011;32853;52.164;5.400;2023-07-31T07:41:02;5.57;;;1.80;;
47103;SDS011;32853;52.164;5.400;2023-07-31T07:46:19;2.67;;;1.17;;
47103;SDS011;32853;52.164;5.400;2023-07-31T07:48:48;3.88;;;0.90;;
47103;SDS011;32853;52.164;5.400;2023-07-31T07:51:13;3.38;;;1.20;;
47103;SDS011;32853;52.164;5.400;2023-07-31T07:53:41;3.25;;;1.05;;
47103;SDS011;32853;52.164;5.400;2023-07-31T07:56:06;4.63;;;1.25;;
47103;SDS011;32853;52.164;5.400;2023-07-31T07:58:33;4.20;;;1.00;;
47103;SDS011;32853;52.164;5.400;2023-07-31T08:00:59;3.10;;;0.90;;
47103;SDS011;32853;52.164;5.400;2023-07-31T08:03:24;3.80;;;0.98;;
47103;SDS011;32853;52.164;5.400;2023-07-31T08:05:49;4.10;;;1.20;;
47103;SDS011;32853;52.164;5.400;2023-07-31T08:08:19;3.65;;;1.25;;
47103;SDS011;32853;52.164;5.400;2023-07-31T08:10:46;2.20;;;0.95;;
47103;SDS011;32853;52.164;5.400;2023-07-31T08:13:11;1.65;;;0.93;;
47103;SDS011;32853;52.164;5.400;2023-07-31T08:15:48;2.80;;;1.30;;
47103;SDS011;32853;52.164;5.400;2023-07-31T08:18:13;2.53;;;0.70;;
47103;SDS011;32853;52.164;5.400;2023-07-31T08:20:39;1.63;;;0.93;;
47103;SDS011;32853;52.164;5.400;2023-07-31T08:23:04;2.55;;;0.80;;
47103;SDS011;32853;52.164;5.400;2023-07-31T08:25:30;1.75;;;0.80;;
47103;SDS011;32853;52.164;5.400;2023-07-31T08:27:55;1.25;;;0.70;;
47103;SDS011;32853;52.164;5.400;2023-07-31T08:30:21;2.05;;;0.70;;
47103;SDS011;32853;52.164;5.400;2023-07-31T08:32:46;2.38;;;0.98;;
47103;SDS011;32853;52.164;5.400;2023-07-31T08:35:13;6.55;;;0.63;;
47103;SDS011;32853;52.164;5.400;2023-07-31T08:37:38;2.63;;;0.80;;
47103;SDS011;32853;52.164;5.400;2023-07-31T08:40:04;2.13;;;0.65;;
47103;SDS011;32853;52.164;5.400;2023-07-31T08:42:30;1.48;;;0.70;;
47103;SDS011;32853;52.164;5.400;2023-07-31T08:44:56;2.53;;;1.00;;
47103;SDS011;32853;52.164;5.400;2023-07-31T08:47:22;1.15;;;0.52;;
47103;SDS011;32853;52.164;5.400;2023-07-31T08:49:49;1.45;;;0.50;;
47103;SDS011;32853;52.164;5.400;2023-07-31T08:52:16;4.43;;;0.98;;
47103;SDS011;32853;52.164;5.400;2023-07-31T08:54:41;2.28;;;0.77;;
47103;SDS011;32853;52.164;5.400;2023-07-31T08:57:06;1.05;;;0.60;;
47103;SDS011;32853;52.164;5.400;2023-07-31T08:59:34;2.40;;;0.50;;
47103;SDS011;32853;52.164;5.400;2023-07-31T09:02:03;3.67;;;0.70;;
47103;SDS011;32853;52.164;5.400;2023-07-31T09:04:31;1.50;;;0.70;;
47103;SDS011;32853;52.164;5.400;2023-07-31T09:07:01;2.15;;;0.75;;
47103;SDS011;32853;52.164;5.400;2023-07-31T09:09:29;0.75;;;0.50;;
47103;SDS011;32853;52.164;5.400;2023-07-31T09:11:58;0.85;;;0.43;;
47103;SDS011;32853;52.164;5.400;2023-07-31T09:14:27;1.38;;;0.70;;
47103;SDS011;32853;52.164;5.400;2023-07-31T09:16:56;1.42;;;0.63;;
47103;SDS011;32853;52.164;5.400;2023-07-31T09:19:27;2.40;;;0.40;;
47103;SDS011;32853;52.164;5.400;2023-07-31T09:21:54;1.45;;;0.60;;
47103;SDS011;32853;52.164;5.400;2023-07-31T09:24:27;0.55;;;0.40;;
47103;SDS011;32853;52.164;5.400;2023-07-31T09:27:00;1.90;;;0.40;;
47103;SDS011;32853;52.164;5.400;2023-07-31T09:29:27;1.05;;;0.60;;
47103;SDS011;32853;52.164;5.400;2023-07-31T09:31:55;1.35;;;0.57;;
47103;SDS011;32853;52.164;5.400;2023-07-31T09:34:30;2.30;;;0.75;;
47103;SDS011;32853;52.164;5.400;2023-07-31T09:37:11;3.28;;;0.80;;
47103;SDS011;32853;52.164;5.400;2023-07-31T09:39:47;1.27;;;0.60;;
47103;SDS011;32853;52.164;5.400;2023-07-31T09:42:13;1.20;;;0.70;;
47103;SDS011;32853;52.164;5.400;2023-07-31T09:44:44;1.50;;;0.82;;
47103;SDS011;32853;52.164;5.400;2023-07-31T09:47:20;1.73;;;0.90;;
47103;SDS011;32853;52.164;5.400;2023-07-31T09:49:52;3.38;;;0.88;;
47103;SDS011;32853;52.164;5.400;2023-07-31T09:52:17;1.17;;;0.80;;
47103;SDS011;32853;52.164;5.400;2023-07-31T09:54:45;1.70;;;0.90;;
47103;SDS011;32853;52.164;5.400;2023-07-31T09:57:17;2.47;;;1.08;;
47103;SDS011;32853;52.164;5.400;2023-07-31T09:59:45;3.05;;;1.00;;
47103;SDS011;32853;52.164;5.400;2023-07-31T10:02:14;1.13;;;0.77;;
47103;SDS011;32853;52.164;5.400;2023-07-31T10:04:51;3.72;;;1.02;;
47103;SDS011;32853;52.164;5.400;2023-07-31T10:07:26;2.08;;;0.90;;
47103;SDS011;32853;52.164;5.400;2023-07-31T10:09:55;2.72;;;0.73;;
47103;SDS011;32853;52.164;5.400;2023-07-31T10:12:25;3.17;;;1.10;;
47103;SDS011;32853;52.164;5.400;2023-07-31T10:14:54;1.48;;;0.73;;
47103;SDS011;32853;52.164;5.400;2023-07-31T10:17:20;1.35;;;0.80;;
47103;SDS011;32853;52.164;5.400;2023-07-31T10:19:47;1.75;;;0.88;;
47103;SDS011;32853;52.164;5.400;2023-07-31T10:22:14;1.67;;;0.93;;
47103;SDS011;32853;52.164;5.400;2023-07-31T10:24:46;2.25;;;1.00;;
47103;SDS011;32853;52.164;5.400;2023-07-31T10:27:13;2.35;;;1.40;;
47103;SDS011;32853;52.164;5.400;2023-07-31T10:29:44;1.50;;;1.00;;
47103;SDS011;32853;52.164;5.400;2023-07-31T10:32:13;2.42;;;1.30;;
47103;SDS011;32853;52.164;5.400;2023-07-31T10:34:40;19.27;;;2.95;;
47103;SDS011;32853;52.164;5.400;2023-07-31T10:37:24;2.83;;;1.60;;
47103;SDS011;32853;52.164;5.400;2023-07-31T10:39:59;3.30;;;1.85;;
47103;SDS011;32853;52.164;5.400;2023-07-31T10:42:33;3.13;;;1.75;;
47103;SDS011;32853;52.164;5.400;2023-07-31T10:45:04;4.15;;;2.00;;
47103;SDS011;32853;52.164;5.400;2023-07-31T10:47:31;3.47;;;2.03;;
47103;SDS011;32853;52.164;5.400;2023-07-31T10:52:58;3.78;;;2.25;;
47103;SDS011;32853;52.164;5.400;2023-07-31T10:55:32;4.65;;;2.30;;
47103;SDS011;32853;52.164;5.400;2023-07-31T10:58:07;5.25;;;1.77;;
47103;SDS011;32853;52.164;5.400;2023-07-31T11:00:36;4.97;;;2.10;;
47103;SDS011;32853;52.164;5.400;2023-07-31T11:03:04;2.47;;;1.80;;
47103;SDS011;32853;52.164;5.400;2023-07-31T11:08:33;2.22;;;1.65;;
47103;SDS011;32853;52.164;5.400;2023-07-31T11:13:31;3.67;;;1.83;;
47103;SDS011;32853;52.164;5.400;2023-07-31T11:16:06;3.58;;;1.92;;
47103;SDS011;32853;52.164;5.400;2023-07-31T11:18:31;2.45;;;1.80;;
47103;SDS011;32853;52.164;5.400;2023-07-31T11:20:56;3.40;;;1.52;;
47103;SDS011;32853;52.164;5.400;2023-07-31T11:23:22;3.03;;;1.38;;
47103;SDS011;32853;52.164;5.400;2023-07-31T11:25:48;5.07;;;1.35;;
47103;SDS011;32853;52.164;5.400;2023-07-31T11:28:15;7.03;;;1.50;;
47103;SDS011;32853;52.164;5.400;2023-07-31T11:30:42;1.55;;;1.10;;
47103;SDS011;32853;52.164;5.400;2023-07-31T11:35:46;3.75;;;0.90;;
47103;SDS011;32853;52.164;5.400;2023-07-31T11:40:59;1.27;;;0.80;;
47103;SDS011;32853;52.164;5.400;2023-07-31T11:43:28;2.65;;;1.08;;
47103;SDS011;32853;52.164;5.400;2023-07-31T11:45:56;1.70;;;0.70;;
47103;SDS011;32853;52.164;5.400;2023-07-31T11:48:24;2.78;;;0.90;;
47103;SDS011;32853;52.164;5.400;2023-07-31T11:56:19;1.40;;;0.98;;
47103;SDS011;32853;52.164;5.400;2023-07-31T11:58:46;2.08;;;1.15;;
47103;SDS011;32853;52.164;5.400;2023-07-31T12:01:22;3.72;;;1.15;;
47103;SDS011;32853;52.164;5.400;2023-07-31T12:03:49;3.33;;;1.33;;
47103;SDS011;32853;52.164;5.400;2023-07-31T12:06:15;4.68;;;1.88;;
47103;SDS011;32853;52.164;5.400;2023-07-31T12:08:40;3.38;;;2.05;;
47103;SDS011;32853;52.164;5.400;2023-07-31T12:11:12;2.40;;;1.77;;
47103;SDS011;32853;52.164;5.400;2023-07-31T12:13:43;5.80;;;2.05;;
47103;SDS011;32853;52.164;5.400;2023-07-31T12:18:37;6.80;;;1.70;;
47103;SDS011;32853;52.164;5.400;2023-07-31T12:21:19;3.70;;;1.95;;
47103;SDS011;32853;52.164;5.400;2023-07-31T12:23:44;6.53;;;1.83;;
47103;SDS011;32853;52.164;5.400;2023-07-31T12:26:11;2.83;;;1.80;;
47103;SDS011;32853;52.164;5.400;2023-07-31T12:33:44;3.60;;;1.55;;
47103;SDS011;32853;52.164;5.400;2023-07-31T12:36:13;2.58;;;1.52;;
47103;SDS011;32853;52.164;5.400;2023-07-31T12:38:39;3.78;;;1.50;;
47103;SDS011;32853;52.164;5.400;2023-07-31T12:41:07;1.58;;;1.10;;
47103;SDS011;32853;52.164;5.400;2023-07-31T12:43:36;2.38;;;1.08;;
47103;SDS011;32853;52.164;5.400;2023-07-31T12:46:03;2.85;;;1.20;;
47103;SDS011;32853;52.164;5.400;2023-07-31T12:48:36;2.80;;;1.45;;
47103;SDS011;32853;52.164;5.400;2023-07-31T12:51:06;2.50;;;1.08;;
47103;SDS011;32853;52.164;5.400;2023-07-31T12:53:33;1.83;;;1.33;;
47103;SDS011;32853;52.164;5.400;2023-07-31T12:55:59;4.10;;;1.63;;
47103;SDS011;32853;52.164;5.400;2023-07-31T12:58:24;2.25;;;1.23;;
47103;SDS011;32853;52.164;5.400;2023-07-31T13:00:49;2.30;;;1.40;;
47103;SDS011;32853;52.164;5.400;2023-07-31T13:06:15;2.92;;;1.70;;
47103;SDS011;32853;52.164;5.400;2023-07-31T13:08:57;3.15;;;1.67;;
47103;SDS011;32853;52.164;5.400;2023-07-31T13:14:08;2.60;;;1.38;;
47103;SDS011;32853;52.164;5.400;2023-07-31T13:16:33;2.17;;;1.42;;
47103;SDS011;32853;52.164;5.400;2023-07-31T13:19:09;3.17;;;1.33;;
47103;SDS011;32853;52.164;5.400;2023-07-31T13:21:35;3.63;;;1.60;;
47103;SDS011;32853;52.164;5.400;2023-07-31T13:24:01;4.60;;;2.17;;
47103;SDS011;32853;52.164;5.400;2023-07-31T13:26:28;4.38;;;1.80;;
47103;SDS011;32853;52.164;5.400;2023-07-31T13:28:55;3.17;;;1.73;;
47103;SDS011;32853;52.164;5.400;2023-07-31T13:31:21;4.80;;;1.83;;
47103;SDS011;32853;52.164;5.400;2023-07-31T13:33:49;3.78;;;2.05;;
47103;SDS011;32853;52.164;5.400;2023-07-31T13:36:30;3.45;;;1.45;;
47103;SDS011;32853;52.164;5.400;2023-07-31T13:38:55;1.85;;;1.17;;
47103;SDS011;32853;52.164;5.400;2023-07-31T13:41:21;3.45;;;1.58;;
47103;SDS011;32853;52.164;5.400;2023-07-31T13:46:20;3.53;;;1.00;;
47103;SDS011;32853;52.164;5.400;2023-07-31T13:48:48;2.15;;;0.80;;
47103;SDS011;32853;52.164;5.400;2023-07-31T13:51:13;2.97;;;0.70;;
47103;SDS011;32853;52.164;5.400;2023-07-31T13:53:40;1.02;;;0.52;;
47103;SDS011;32853;52.164;5.400;2023-07-31T13:56:06;0.80;;;0.50;;
47103;SDS011;32853;52.164;5.400;2023-07-31T13:58:32;0.45;;;0.38;;
47103;SDS011;32853;52.164;5.400;2023-07-31T14:01:00;2.95;;;0.50;;
47103;SDS011;32853;52.164;5.400;2023-07-31T14:03:27;1.10;;;0.40;;
47103;SDS011;32853;52.164;5.400;2023-07-31T14:06:03;0.98;;;0.50;;
47103;SDS011;32853;52.164;5.400;2023-07-31T14:08:45;2.75;;;0.70;;
47103;SDS011;32853;52.164;5.400;2023-07-31T14:11:12;1.83;;;0.50;;
47103;SDS011;32853;52.164;5.400;2023-07-31T14:13:40;5.65;;;0.68;;
47103;SDS011;32853;52.164;5.400;2023-07-31T14:16:06;1.15;;;0.50;;
47103;SDS011;32853;52.164;5.400;2023-07-31T14:18:31;1.95;;;0.50;;
47103;SDS011;32853;52.164;5.400;2023-07-31T14:20:57;1.00;;;0.45;;
47103;SDS011;32853;52.164;5.400;2023-07-31T14:23:27;1.50;;;0.75;;
47103;SDS011;32853;52.164;5.400;2023-07-31T14:25:52;3.38;;;0.80;;
47103;SDS011;32853;52.164;5.400;2023-07-31T14:28:20;4.65;;;0.85;;
47103;SDS011;32853;52.164;5.400;2023-07-31T14:30:45;3.90;;;1.35;;
47103;SDS011;32853;52.164;5.400;2023-07-31T14:33:13;3.67;;;1.08;;
47103;SDS011;32853;52.164;5.400;2023-07-31T14:35:43;1.83;;;1.05;;
47103;SDS011;32853;52.164;5.400;2023-07-31T14:38:08;4.95;;;2.30;;
47103;SDS011;32853;52.164;5.400;2023-07-31T14:40:36;3.65;;;2.30;;
47103;SDS011;32853;52.164;5.400;2023-07-31T14:43:11;4.93;;;2.90;;
47103;SDS011;32853;52.164;5.400;2023-07-31T14:45:36;4.25;;;2.88;;
47103;SDS011;32853;52.164;5.400;2023-07-31T14:48:02;4.85;;;3.05;;
47103;SDS011;32853;52.164;5.400;2023-07-31T14:53:04;4.70;;;2.90;;
47103;SDS011;32853;52.164;5.400;2023-07-31T14:55:37;4.53;;;3.13;;
47103;SDS011;32853;52.164;5.400;2023-07-31T14:58:07;5.35;;;3.35;;
47103;SDS011;32853;52.164;5.400;2023-07-31T15:00:34;4.72;;;3.35;;
47103;SDS011;32853;52.164;5.400;2023-07-31T15:03:01;5.00;;;2.55;;
47103;SDS011;32853;52.164;5.400;2023-07-31T15:05:34;2.83;;;1.83;;
47103;SDS011;32853;52.164;5.400;2023-07-31T15:07:59;3.00;;;1.83;;
47103;SDS011;32853;52.164;5.400;2023-07-31T15:10:33;3.15;;;2.15;;
47103;SDS011;32853;52.164;5.400;2023-07-31T15:13:16;3.60;;;2.30;;
47103;SDS011;32853;52.164;5.400;2023-07-31T15:15:42;2.63;;;1.95;;
47103;SDS011;32853;52.164;5.400;2023-07-31T15:18:09;4.50;;;1.63;;
47103;SDS011;32853;52.164;5.400;2023-07-31T15:20:35;3.67;;;1.80;;
47103;SDS011;32853;52.164;5.400;2023-07-31T15:23:04;2.58;;;1.42;;
47103;SDS011;32853;52.164;5.400;2023-07-31T15:25:29;4.30;;;1.27;;
47103;SDS011;32853;52.164;5.400;2023-07-31T15:27:56;3.10;;;1.35;;
47103;SDS011;32853;52.164;5.400;2023-07-31T15:30:21;2.95;;;1.80;;
47103;SDS011;32853;52.164;5.400;2023-07-31T15:32:47;4.25;;;2.08;;
47103;SDS011;32853;52.164;5.400;2023-07-31T15:37:46;4.13;;;1.90;;
47103;SDS011;32853;52.164;5.400;2023-07-31T15:40:21;5.10;;;2.25;;
47103;SDS011;32853;52.164;5.400;2023-07-31T15:42:47;3.45;;;2.30;;
47103;SDS011;32853;52.164;5.400;2023-07-31T15:45:12;5.68;;;1.75;;
47103;SDS011;32853;52.164;5.400;2023-07-31T15:47:38;3.83;;;2.30;;
47103;SDS011;32853;52.164;5.400;2023-07-31T15:50:04;5.45;;;1.92;;
47103;SDS011;32853;52.164;5.400;2023-07-31T15:52:29;3.95;;;2.13;;
47103;SDS011;32853;52.164;5.400;2023-07-31T15:54:55;4.15;;;1.95;;
47103;SDS011;32853;52.164;5.400;2023-07-31T15:57:20;2.65;;;1.60;;
47103;SDS011;32853;52.164;5.400;2023-07-31T15:59:46;2.10;;;1.35;;
47103;SDS011;32853;52.164;5.400;2023-07-31T16:02:11;1.60;;;1.25;;
47103;SDS011;32853;52.164;5.400;2023-07-31T16:04:36;1.80;;;1.25;;
47103;SDS011;32853;52.164;5.400;2023-07-31T16:07:05;2.30;;;1.08;;
47103;SDS011;32853;52.164;5.400;2023-07-31T16:09:31;1.20;;;0.80;;
47103;SDS011;32853;52.164;5.400;2023-07-31T16:11:56;1.08;;;0.60;;